createdAt,value
2023-01-26T00:02:24.814Z,101223.40
2023-01-26T00:04:57.793Z,101229.58
2023-01-26T00:07:31.144Z,101228.80
2023-01-26T00:10:04.649Z,101225.34
2023-01-26T00:12:38.660Z,101220.05
2023-01-26T00:15:11.611Z,101224.20
2023-01-26T00:17:45.002Z,101227.50
2023-01-26T00:20:18.435Z,101226.02
2023-01-26T00:22:51.225Z,101228.00
2023-01-26T00:25:24.285Z,101228.00
2023-01-26T00:27:57.963Z,101221.22
2023-01-26T00:30:30.929Z,101222.30
2023-01-26T00:33:04.470Z,101225.92
2023-01-26T00:35:38.599Z,101227.37
2023-01-26T00:38:12.790Z,101219.14
2023-01-26T00:40:46.786Z,101221.16
2023-01-26T00:43:19.703Z,101218.73
2023-01-26T00:45:52.474Z,101217.47
2023-01-26T00:48:27.089Z,101219.11
2023-01-26T00:51:00.386Z,101214.02
2023-01-26T00:53:33.479Z,101212.91
2023-01-26T00:56:06.978Z,101207.94
2023-01-26T00:58:40.836Z,101210.66
2023-01-26T01:01:13.778Z,101202.97
2023-01-26T01:03:48.127Z,101204.38
2023-01-26T01:06:21.458Z,101205.08
2023-01-26T01:08:55.938Z,101205.58
2023-01-26T01:11:28.927Z,101205.75
2023-01-26T01:14:02.464Z,101207.02
2023-01-26T01:16:35.427Z,101207.02
2023-01-26T01:19:08.603Z,101196.95
2023-01-26T01:21:41.995Z,101202.06
2023-01-26T01:24:16.036Z,101198.03
2023-01-26T01:26:48.791Z,101195.28
2023-01-26T01:29:21.583Z,101186.16
2023-01-26T01:31:55.121Z,101191.42
2023-01-26T01:34:28.301Z,101187.89
2023-01-26T01:37:01.815Z,101189.50
2023-01-26T01:39:35.835Z,101194.19
2023-01-26T01:42:08.932Z,101195.27
2023-01-26T01:44:43.837Z,101186.64
2023-01-26T01:47:21.736Z,101189.85
2023-01-26T01:49:55.497Z,101188.17
2023-01-26T01:52:31.665Z,101188.53
2023-01-26T01:55:11.121Z,101187.80
2023-01-26T01:57:56.623Z,101188.12
2023-01-26T02:00:29.568Z,101181.02
2023-01-26T02:03:14.177Z,101182.83
2023-01-26T02:05:56.873Z,101180.28
2023-01-26T02:08:44.832Z,101178.67
2023-01-26T02:11:33.392Z,101178.67
2023-01-26T02:14:09.832Z,101173.66
2023-01-26T02:16:43.204Z,101170.14
2023-01-26T02:19:26.862Z,101164.50
2023-01-26T02:22:02.751Z,101168.16
2023-01-26T02:24:38.437Z,101171.62
2023-01-26T02:27:11.265Z,101167.45
2023-01-26T02:29:44.529Z,101179.13
2023-01-26T02:32:17.926Z,101173.42
2023-01-26T02:34:58.102Z,101176.22
2023-01-26T02:37:30.896Z,101185.80
2023-01-26T02:40:14.515Z,101186.86
2023-01-26T02:42:47.314Z,101184.75
2023-01-26T02:45:20.186Z,101182.91
2023-01-26T02:47:53.166Z,101183.73
2023-01-26T02:50:26.921Z,101181.77
2023-01-26T02:53:00.531Z,101182.38
2023-01-26T02:55:34.054Z,101185.34
2023-01-26T02:58:08.356Z,101184.81
2023-01-26T03:00:42.921Z,101181.06
2023-01-26T03:03:23.172Z,101178.52
2023-01-26T03:05:56.030Z,101181.56
2023-01-26T03:08:29.461Z,101175.48
2023-01-26T03:11:02.609Z,101176.26
2023-01-26T03:13:36.096Z,101171.58
2023-01-26T03:16:12.273Z,101174.83
2023-01-26T03:18:47.098Z,101177.33
2023-01-26T03:21:38.064Z,101173.30
2023-01-26T03:24:32.119Z,101171.12
2023-01-26T03:27:25.144Z,101175.16
2023-01-26T03:29:59.410Z,101170.27
2023-01-26T03:32:32.939Z,101170.47
2023-01-26T03:35:07.458Z,101172.44
2023-01-26T03:37:41.277Z,101177.91
2023-01-26T03:40:35.067Z,101185.55
2023-01-26T03:43:28.931Z,101183.33
2023-01-26T03:46:22.760Z,101177.53
2023-01-26T03:49:13.776Z,101179.37
2023-01-26T03:52:04.620Z,101174.83
2023-01-26T03:54:56.289Z,101180.33
2023-01-26T03:57:31.476Z,101181.06
2023-01-26T04:00:05.051Z,101181.77
2023-01-26T04:02:58.425Z,101183.20
2023-01-26T04:05:50.243Z,101184.81
2023-01-26T04:08:24.691Z,101187.52
2023-01-26T04:10:59.109Z,101185.50
2023-01-26T04:13:50.768Z,101184.77
2023-01-26T04:16:43.330Z,101191.70
2023-01-26T04:19:34.207Z,101192.20
2023-01-26T04:22:07.967Z,101195.41
2023-01-26T04:24:42.637Z,101201.65
2023-01-26T04:27:15.496Z,101202.72
2023-01-26T04:29:48.965Z,101207.45
2023-01-26T04:32:22.282Z,101215.66
2023-01-26T04:34:55.921Z,101211.84
2023-01-26T04:37:29.109Z,101208.02
2023-01-26T04:40:02.279Z,101206.75
2023-01-26T04:42:36.818Z,101213.11
2023-01-26T04:45:11.976Z,101212.70
2023-01-26T04:47:44.946Z,101209.78
2023-01-26T04:50:18.509Z,101209.48
2023-01-26T04:52:51.390Z,101216.39
2023-01-26T04:55:25.652Z,101215.44
2023-01-26T04:57:58.742Z,101213.05
2023-01-26T05:00:31.748Z,101218.31
2023-01-26T05:03:08.430Z,101219.95
2023-01-26T05:05:41.662Z,101215.72
2023-01-26T05:08:14.484Z,101211.61
2023-01-26T05:10:47.562Z,101221.25
2023-01-26T05:13:25.177Z,101214.80
2023-01-26T05:16:09.270Z,101219.35
2023-01-26T05:19:00.405Z,101222.39
2023-01-26T05:21:34.820Z,101216.67
2023-01-26T05:24:08.903Z,101215.19
2023-01-26T05:27:06.800Z,101216.88
2023-01-26T05:29:40.584Z,101217.09
2023-01-26T05:32:13.463Z,101227.84
2023-01-26T05:34:47.504Z,101229.33
2023-01-26T05:37:20.813Z,101223.87
2023-01-26T05:39:53.675Z,101216.44
2023-01-26T05:42:27.735Z,101212.26
2023-01-26T05:45:06.501Z,101218.50
2023-01-26T05:47:39.724Z,101221.67
2023-01-26T05:50:13.578Z,101219.17
2023-01-26T05:52:48.017Z,101218.84
2023-01-26T05:55:21.346Z,101215.44
2023-01-26T05:57:54.902Z,101219.67
2023-01-26T06:00:28.089Z,101220.25
2023-01-26T06:03:02.589Z,101216.84
2023-01-26T06:05:36.823Z,101213.61
2023-01-26T06:08:11.420Z,101221.55
2023-01-26T06:10:52.832Z,101218.01
2023-01-26T06:13:30.571Z,101217.84
2023-01-26T06:16:08.187Z,101220.23
2023-01-26T06:18:42.818Z,101216.28
2023-01-26T06:21:15.795Z,101221.42
2023-01-26T06:23:49.150Z,101222.03
2023-01-26T06:26:22.036Z,101226.47
2023-01-26T06:28:55.502Z,101219.94
2023-01-26T06:31:30.161Z,101226.34
2023-01-26T06:34:05.835Z,101226.63
2023-01-26T06:36:41.879Z,101225.59
2023-01-26T06:39:17.422Z,101229.66
2023-01-26T06:41:50.410Z,101227.02
2023-01-26T06:44:23.406Z,101230.17
2023-01-26T06:46:56.434Z,101230.45
2023-01-26T06:49:29.335Z,101228.14
2023-01-26T06:52:31.880Z,101228.41
2023-01-26T06:55:06.879Z,101220.62
2023-01-26T06:57:56.883Z,101218.50
2023-01-26T07:00:40.020Z,101213.30
2023-01-26T07:03:24.682Z,101213.59
2023-01-26T07:05:57.726Z,101210.59
2023-01-26T07:08:31.961Z,101207.22
2023-01-26T07:11:08.901Z,101206.36
2023-01-26T07:13:42.634Z,101199.88
2023-01-26T07:16:17.708Z,101201.83
2023-01-26T07:18:51.220Z,101195.73
2023-01-26T07:21:24.373Z,101202.19
2023-01-26T07:23:59.225Z,101202.08
2023-01-26T07:26:32.055Z,101201.77
2023-01-26T07:29:04.993Z,101200.89
2023-01-26T07:31:38.101Z,101204.03
2023-01-26T07:34:15.574Z,101199.16
2023-01-26T07:36:48.851Z,101201.92
2023-01-26T07:39:23.341Z,101199.01
2023-01-26T07:41:56.844Z,101196.52
2023-01-26T07:44:40.247Z,101191.27
2023-01-26T07:47:13.095Z,101198.25
2023-01-26T07:49:47.443Z,101191.91
2023-01-26T07:52:20.726Z,101195.19
2023-01-26T07:54:53.510Z,101187.55
2023-01-26T07:57:26.906Z,101194.90
2023-01-26T08:00:00.292Z,101195.09
2023-01-26T08:02:33.823Z,101192.77
2023-01-26T08:05:07.309Z,101191.48
2023-01-26T08:07:40.215Z,101189.34
2023-01-26T08:10:14.829Z,101193.37
2023-01-26T08:12:47.838Z,101186.62
2023-01-26T08:15:20.830Z,101187.36
2023-01-26T08:17:55.246Z,101177.86
2023-01-26T08:20:28.127Z,101172.57
2023-01-26T08:23:01.475Z,101165.63
2023-01-26T08:25:35.065Z,101168.92
2023-01-26T08:28:07.951Z,101161.23
2023-01-26T08:30:41.829Z,101159.22
2023-01-26T08:33:14.914Z,101161.58
2023-01-26T08:35:47.864Z,101162.33
2023-01-26T08:38:20.632Z,101154.63
2023-01-26T08:40:56.377Z,101153.88
2023-01-26T08:43:29.916Z,101155.17
2023-01-26T08:46:02.848Z,101138.48
2023-01-26T08:48:36.478Z,101138.48
2023-01-26T08:51:10.252Z,101130.95
2023-01-26T08:53:42.982Z,101136.97
2023-01-26T08:56:15.833Z,101129.82
2023-01-26T08:58:49.201Z,101130.16
2023-01-26T09:01:22.435Z,101118.95
2023-01-26T09:03:57.257Z,101118.76
2023-01-26T09:06:32.983Z,101116.91
2023-01-26T09:09:06.541Z,101110.82
2023-01-26T09:11:40.451Z,101110.63
2023-01-26T09:14:13.632Z,101099.05
2023-01-26T09:16:46.531Z,101099.58
2023-01-26T09:19:19.749Z,101097.53
2023-01-26T09:21:56.798Z,101089.81
2023-01-26T09:24:29.740Z,101089.78
2023-01-26T09:27:02.681Z,101086.28
2023-01-26T09:29:36.106Z,101076.91
2023-01-26T09:32:08.990Z,101076.70
2023-01-26T09:34:44.817Z,101079.66
2023-01-26T09:37:17.293Z,101083.89
2023-01-26T09:39:49.999Z,101079.09
2023-01-26T09:42:39.080Z,101077.26
2023-01-26T09:45:31.732Z,101080.52
2023-01-26T09:48:54.183Z,101077.95
2023-01-26T09:51:42.764Z,101076.08
2023-01-26T09:54:23.529Z,101070.70
2023-01-26T09:56:57.892Z,101073.61
2023-01-26T09:59:41.974Z,101066.81
2023-01-26T10:02:28.666Z,101064.59
2023-01-26T10:05:04.588Z,101064.37
2023-01-26T10:07:37.986Z,101062.66
2023-01-26T10:10:30.566Z,101052.52
2023-01-26T10:13:04.991Z,101040.56
2023-01-26T10:15:39.487Z,101042.92
2023-01-26T10:18:29.461Z,101040.35
2023-01-26T10:21:04.785Z,101042.19
2023-01-26T10:23:38.801Z,101037.39
2023-01-26T10:26:20.943Z,101032.93
2023-01-26T10:28:54.951Z,101024.80
2023-01-26T10:31:32.732Z,101023.46
2023-01-26T10:34:26.212Z,101021.06
2023-01-26T10:37:22.125Z,101012.00
2023-01-26T10:40:09.194Z,101017.08
2023-01-26T10:42:44.206Z,101005.80
2023-01-26T10:45:35.124Z,101002.96
2023-01-26T10:48:28.288Z,101004.39
2023-01-26T10:51:24.410Z,101004.51
2023-01-26T10:54:26.610Z,101006.81
2023-01-26T10:57:24.300Z,100998.14
2023-01-26T11:00:02.011Z,100995.33
2023-01-26T11:02:37.817Z,100996.20
2023-01-26T11:05:15.562Z,100991.73
2023-01-26T11:07:55.003Z,100991.84
2023-01-26T11:10:34.737Z,100991.05
2023-01-26T11:13:20.545Z,100991.92
2023-01-26T11:16:19.104Z,100986.55
2023-01-26T11:19:09.935Z,100989.23
2023-01-26T11:21:54.717Z,100982.94
2023-01-26T11:24:34.994Z,100978.80
2023-01-26T11:27:38.210Z,100986.48
2023-01-26T11:30:44.762Z,100981.44
2023-01-26T11:33:28.672Z,100976.22
2023-01-26T11:36:25.611Z,100969.73
2023-01-26T11:39:43.274Z,100979.83
2023-01-26T11:42:38.946Z,100978.86
2023-01-26T11:45:37.660Z,100970.17
2023-01-26T11:48:27.192Z,100974.20
2023-01-26T11:51:30.368Z,100972.52
2023-01-26T11:54:38.795Z,100983.53
2023-01-26T11:57:41.940Z,100982.24
2023-01-26T12:00:29.990Z,100981.11
2023-01-26T12:03:07.967Z,100983.81
2023-01-26T12:05:47.596Z,100989.28
2023-01-26T12:08:34.843Z,100988.55
2023-01-26T12:11:27.614Z,100996.20
2023-01-26T12:14:24.460Z,100996.75
2023-01-26T12:17:27.764Z,100993.79
2023-01-26T12:20:14.721Z,100996.53
2023-01-26T12:22:52.189Z,100992.31
2023-01-26T12:25:44.290Z,100992.63
2023-01-26T12:28:24.320Z,100992.02
2023-01-26T12:31:24.730Z,100993.63
2023-01-26T12:34:00.064Z,100989.53
2023-01-26T12:36:55.710Z,100991.36
2023-01-26T12:39:47.218Z,100992.27
2023-01-26T12:42:36.820Z,100991.75
2023-01-26T12:45:19.930Z,100992.81
2023-01-26T12:48:24.104Z,100992.42
2023-01-26T12:51:01.973Z,100992.06
2023-01-26T12:53:55.090Z,100986.14
2023-01-26T12:56:44.531Z,100985.63
2023-01-26T12:59:47.971Z,100982.27
2023-01-26T13:02:31.514Z,100978.25
2023-01-26T13:05:08.070Z,100984.53
2023-01-26T13:07:42.591Z,100986.76
2023-01-26T13:10:22.901Z,100981.06
2023-01-26T13:13:21.900Z,100986.44
2023-01-26T13:16:23.550Z,100983.31
2023-01-26T13:18:58.932Z,100978.78
2023-01-26T13:21:45.719Z,100977.34
2023-01-26T13:24:23.690Z,100974.44
2023-01-26T13:27:00.992Z,100971.16
2023-01-26T13:29:36.281Z,100971.90
2023-01-26T13:32:22.534Z,100978.02
2023-01-26T13:35:05.605Z,100970.36
2023-01-26T13:37:51.771Z,100976.70
2023-01-26T13:40:39.027Z,100973.81
2023-01-26T13:43:40.372Z,100975.91
2023-01-26T13:46:29.970Z,100977.99
2023-01-26T13:49:03.016Z,100970.91
2023-01-26T13:51:37.643Z,100977.58
2023-01-26T13:54:17.577Z,100981.85
2023-01-26T13:57:08.327Z,100982.14
2023-01-26T14:00:00.647Z,100980.72
2023-01-26T14:02:38.976Z,100974.02
2023-01-26T14:05:24.098Z,100972.08
2023-01-26T14:07:57.268Z,100972.71
2023-01-26T14:10:30.910Z,100962.70
2023-01-26T14:13:04.846Z,100964.62
2023-01-26T14:15:37.827Z,100966.92
2023-01-26T14:18:15.419Z,100964.59
2023-01-26T14:20:51.551Z,100961.91
2023-01-26T14:23:26.591Z,100966.94
2023-01-26T14:26:24.750Z,100966.63
2023-01-26T14:28:57.801Z,100964.17
2023-01-26T14:31:32.584Z,100960.03
2023-01-26T14:34:10.425Z,100956.41
2023-01-26T14:36:43.410Z,100957.03
2023-01-26T14:39:21.921Z,100956.02
2023-01-26T14:41:55.680Z,100946.53
2023-01-26T14:44:32.616Z,100958.14
2023-01-26T14:47:22.306Z,100953.61
2023-01-26T14:50:14.910Z,100955.50
2023-01-26T14:52:49.594Z,100955.94
2023-01-26T14:55:37.448Z,100956.33
2023-01-26T14:58:20.825Z,100952.88
2023-01-26T15:00:54.036Z,100960.83
2023-01-26T15:03:37.133Z,100960.70
2023-01-26T15:06:24.132Z,100968.41
2023-01-26T15:09:10.056Z,100961.13
2023-01-26T15:12:01.231Z,100963.70
2023-01-26T15:14:45.353Z,100969.61
2023-01-26T15:17:44.447Z,100964.30
2023-01-26T15:20:28.253Z,100965.63
2023-01-26T15:23:01.306Z,100962.33
2023-01-26T15:25:35.028Z,100970.25
2023-01-26T15:28:11.674Z,100968.62
2023-01-26T15:30:49.057Z,100963.87
2023-01-26T15:33:44.012Z,100967.16
2023-01-26T15:36:34.492Z,100960.95
2023-01-26T15:39:20.237Z,100960.78
2023-01-26T15:42:15.754Z,100959.55
2023-01-26T15:44:49.048Z,100963.59
2023-01-26T15:47:22.016Z,100969.67
2023-01-26T15:49:55.061Z,100967.27
2023-01-26T15:52:30.707Z,100970.05
2023-01-26T15:55:05.543Z,100966.58
2023-01-26T15:57:39.022Z,100968.63
2023-01-26T16:00:15.707Z,100968.63
2023-01-26T16:02:48.721Z,100971.61
2023-01-26T16:05:24.596Z,100972.75
2023-01-26T16:07:57.847Z,100976.97
2023-01-26T16:10:31.345Z,100977.01
2023-01-26T16:13:08.126Z,100971.35
2023-01-26T16:15:51.030Z,100972.28
2023-01-26T16:18:23.845Z,100971.03
2023-01-26T16:20:56.875Z,100972.48
2023-01-26T16:23:32.055Z,100965.00
2023-01-26T16:26:06.519Z,100955.49
2023-01-26T16:28:39.428Z,100957.53
2023-01-26T16:31:19.098Z,100957.94
2023-01-26T16:33:52.730Z,100959.42
2023-01-26T16:36:26.319Z,100961.07
2023-01-26T16:38:59.296Z,100954.13
2023-01-26T16:41:33.432Z,100958.56
2023-01-26T16:44:09.326Z,100960.56
2023-01-26T16:46:43.019Z,100949.95
2023-01-26T16:49:17.054Z,100944.48
2023-01-26T16:51:50.134Z,100945.03
2023-01-26T16:54:23.541Z,100944.30
2023-01-26T16:56:57.386Z,100952.37
2023-01-26T16:59:29.380Z,100946.16
2023-01-26T17:02:03.167Z,100948.17
2023-01-26T17:04:36.247Z,100950.76
2023-01-26T17:07:08.956Z,100948.56
2023-01-26T17:09:42.108Z,100947.86
2023-01-26T17:12:15.373Z,100946.40
2023-01-26T17:14:48.589Z,100950.41
2023-01-26T17:17:21.993Z,100945.48
2023-01-26T17:19:56.298Z,100941.66
2023-01-26T17:22:31.325Z,100942.39
2023-01-26T17:25:04.376Z,100944.22
2023-01-26T17:27:39.050Z,100939.48
2023-01-26T17:30:12.458Z,100944.25
2023-01-26T17:32:46.386Z,100940.25
2023-01-26T17:35:19.557Z,100947.02
2023-01-26T17:37:52.397Z,100945.58
2023-01-26T17:40:25.350Z,100943.58
2023-01-26T17:42:58.287Z,100948.70
2023-01-26T17:45:31.193Z,100943.05
2023-01-26T17:48:04.252Z,100944.88
2023-01-26T17:50:37.279Z,100946.16
2023-01-26T17:53:10.063Z,100940.69
2023-01-26T17:55:43.566Z,100942.14
2023-01-26T17:58:17.053Z,100940.31
2023-01-26T18:00:50.060Z,100944.16
2023-01-26T18:03:24.685Z,100944.18
2023-01-26T18:05:58.729Z,100945.06
2023-01-26T18:08:31.762Z,100948.36
2023-01-26T18:11:08.309Z,100946.36
2023-01-26T18:13:42.115Z,100936.31
2023-01-26T18:16:18.730Z,100932.09
2023-01-26T18:18:57.105Z,100933.02
2023-01-26T18:21:32.365Z,100925.16
2023-01-26T18:24:07.070Z,100918.94
2023-01-26T18:26:41.552Z,100924.96
2023-01-26T18:29:15.280Z,100928.82
2023-01-26T18:31:48.483Z,100929.16
2023-01-26T18:34:21.236Z,100927.54
2023-01-26T18:36:55.817Z,100925.14
2023-01-26T18:39:29.329Z,100923.52
2023-01-26T18:42:02.411Z,100926.08
2023-01-26T18:44:35.568Z,100917.30
2023-01-26T18:47:08.438Z,100917.30
2023-01-26T18:49:41.990Z,100912.19
2023-01-26T18:52:15.245Z,100912.55
2023-01-26T18:54:48.577Z,100914.75
2023-01-26T18:57:23.292Z,100914.77
2023-01-26T18:59:57.068Z,100921.52
2023-01-26T19:02:31.960Z,100910.91
2023-01-26T19:05:08.412Z,100916.20
2023-01-26T19:07:42.056Z,100918.58
2023-01-26T19:10:15.013Z,100916.03
2023-01-26T19:12:53.167Z,100918.22
2023-01-26T19:15:26.975Z,100915.84
2023-01-26T19:18:00.876Z,100917.31
2023-01-26T19:20:33.841Z,100905.98
2023-01-26T19:23:07.554Z,100903.62
2023-01-26T19:25:41.656Z,100903.05
2023-01-26T19:28:14.589Z,100901.59
2023-01-26T19:30:47.929Z,100908.52
2023-01-26T19:33:28.967Z,100903.08
2023-01-26T19:36:05.135Z,100904.17
2023-01-26T19:38:40.018Z,100903.05
2023-01-26T19:41:13.229Z,100902.34
2023-01-26T19:43:46.475Z,100907.83
2023-01-26T19:46:21.637Z,100915.31
2023-01-26T19:48:55.128Z,100907.09
2023-01-26T19:51:29.638Z,100904.70
2023-01-26T19:54:03.292Z,100912.54
2023-01-26T19:56:37.332Z,100906.12
2023-01-26T19:59:13.053Z,100913.99
2023-01-26T20:01:47.115Z,100911.59
2023-01-26T20:04:20.318Z,100915.02
2023-01-26T20:06:53.356Z,100914.45
2023-01-26T20:09:26.211Z,100914.45
2023-01-26T20:11:59.027Z,100911.72
2023-01-26T20:14:32.086Z,100910.97
2023-01-26T20:17:05.610Z,100903.11
2023-01-26T20:19:38.935Z,100905.33
2023-01-26T20:22:12.472Z,100901.69
2023-01-26T20:24:45.624Z,100904.99
2023-01-26T20:27:20.354Z,100898.79
2023-01-26T20:29:53.742Z,100898.79
2023-01-26T20:32:27.242Z,100902.81
2023-01-26T20:35:01.084Z,100899.88
2023-01-26T20:37:34.276Z,100903.34
2023-01-26T20:40:08.258Z,100900.78
2023-01-26T20:42:42.066Z,100902.25
2023-01-26T20:45:15.482Z,100900.97
2023-01-26T20:47:48.443Z,100897.29
2023-01-26T20:50:22.119Z,100895.83
2023-01-26T20:52:55.283Z,100895.83
2023-01-26T20:55:28.210Z,100892.52
2023-01-26T20:58:02.652Z,100890.34
2023-01-26T21:00:36.263Z,100881.41
2023-01-26T21:03:09.143Z,100879.38
2023-01-26T21:05:42.412Z,100875.16
2023-01-26T21:08:15.149Z,100879.00
2023-01-26T21:10:48.429Z,100876.44
2023-01-26T21:13:22.862Z,100872.23
2023-01-26T21:15:56.495Z,100862.55
2023-01-26T21:18:29.355Z,100860.18
2023-01-26T21:21:05.749Z,100859.62
2023-01-26T21:23:40.204Z,100855.78
2023-01-26T21:26:16.126Z,100847.59
2023-01-26T21:28:59.208Z,100853.94
2023-01-26T21:31:33.992Z,100838.43
2023-01-26T21:34:06.876Z,100840.05
2023-01-26T21:36:40.045Z,100838.77
2023-01-26T21:39:15.237Z,100840.22
2023-01-26T21:41:57.344Z,100840.41
2023-01-26T21:44:36.713Z,100840.37
2023-01-26T21:47:10.736Z,100835.98
2023-01-26T21:49:43.459Z,100834.88
2023-01-26T21:52:34.182Z,100839.42
2023-01-26T21:55:07.458Z,100841.97
2023-01-26T21:57:58.312Z,100840.70
2023-01-26T22:00:33.323Z,100834.36
2023-01-26T22:03:06.774Z,100835.59
2023-01-26T22:05:39.429Z,100833.05
2023-01-26T22:08:12.915Z,100836.68
2023-01-26T22:10:47.491Z,100833.03
2023-01-26T22:13:20.661Z,100839.36
2023-01-26T22:15:53.682Z,100842.42
2023-01-26T22:18:27.383Z,100840.77
2023-01-26T22:21:00.171Z,100846.42
2023-01-26T22:23:37.715Z,100849.86
2023-01-26T22:26:21.305Z,100843.30
2023-01-26T22:28:59.775Z,100848.21
2023-01-26T22:31:33.598Z,100846.74
2023-01-26T22:34:07.153Z,100839.27
2023-01-26T22:36:41.257Z,100826.91
2023-01-26T22:39:14.203Z,100818.76
2023-01-26T22:41:47.046Z,100822.07
2023-01-26T22:44:20.035Z,100816.63
2023-01-26T22:46:53.139Z,100819.18
2023-01-26T22:49:26.071Z,100820.64
2023-01-26T22:51:58.927Z,100811.72
2023-01-26T22:54:31.805Z,100814.98
2023-01-26T22:57:04.632Z,100818.99
2023-01-26T22:59:38.224Z,100806.95
2023-01-26T23:02:11.095Z,100809.68
2023-01-26T23:04:44.370Z,100806.37
2023-01-26T23:07:17.273Z,100800.38
2023-01-26T23:09:50.353Z,100804.72
2023-01-26T23:12:23.644Z,100807.77
2023-01-26T23:14:57.099Z,100799.37
2023-01-26T23:17:30.060Z,100794.45
2023-01-26T23:20:03.152Z,100801.03
2023-01-26T23:22:36.571Z,100793.75
2023-01-26T23:25:28.042Z,100791.77
2023-01-26T23:28:05.335Z,100791.56
2023-01-26T23:30:38.814Z,100791.00
2023-01-26T23:33:12.073Z,100786.28
2023-01-26T23:35:45.618Z,100792.80
2023-01-26T23:38:19.215Z,100791.90
2023-01-26T23:40:53.039Z,100788.41
2023-01-26T23:43:26.246Z,100785.33
2023-01-26T23:45:59.845Z,100789.34
2023-01-26T23:48:33.267Z,100792.04
2023-01-26T23:51:10.055Z,100789.09
2023-01-26T23:53:43.025Z,100793.63
2023-01-26T23:56:18.417Z,100798.91
2023-01-26T23:58:51.351Z,100805.07
